Time;durP1;ratioP1;P1;durP2;ratioP2;P2;SDS_P1;SDS_P2;PMS_P1;PMS_P2;Temp;Humidity;BMP_temperature;BMP_pressure;BME280_temperature;BME280_humidity;BME280_pressure;Samples;Min_cycle;Max_cycle;Signal;HPM_P1;HPM_P2
2022/10/14 00:00:23;;;;;;;;;;;;;;;14.51;100.00;101185.28;5007023;28;19933;-74
2022/10/14 00:02:49;;;;;;;;;;;;;;;14.56;100.00;101179.28;4994253;28;19925;-75
2022/10/14 00:05:15;;;;;;;;;;;;;;;14.54;100.00;101176.09;5021163;28;19943;-74
2022/10/14 00:07:43;;;;;;;;;;;;;;;14.56;100.00;101176.50;5028056;28;19920;-75
2022/10/14 00:10:09;;;;;;;;;;;;;;;14.60;100.00;101171.66;5019883;28;19921;-75
2022/10/14 00:12:36;;;;;;;;;;;;;;;14.58;100.00;101167.72;5025457;28;19925;-75
2022/10/14 00:15:02;;;;;;;;;;;;;;;14.53;100.00;101162.59;5018526;28;19928;-75
2022/10/14 00:17:28;;;;;;;;;;;;;;;14.57;100.00;101169.72;5011712;28;19929;-75
2022/10/14 00:19:55;;;;;;;;;;;;;;;14.57;100.00;101172.50;5028368;28;19928;-75
2022/10/14 00:22:21;;;;;;;;;;;;;;;14.55;100.00;101160.97;5029505;28;20282;-75
2022/10/14 00:24:47;;;;;;;;;;;;;;;14.52;100.00;101167.34;5028775;28;19932;-74
2022/10/14 00:27:14;;;;;;;;;;;;;;;14.51;100.00;101165.78;5032135;28;19920;-74
2022/10/14 00:29:40;;;;;;;;;;;;;;;14.55;100.00;101169.31;5025620;28;19929;-74
2022/10/14 00:32:07;;;;;;;;;;;;;;;14.55;100.00;101171.31;5012355;28;19929;-75
2022/10/14 00:34:34;;;;;;;;;;;;;;;14.56;100.00;101170.91;5013573;28;19925;-74
2022/10/14 00:37:00;;;;;;;;;;;;;;;14.53;100.00;101171.75;5027854;28;19925;-74
2022/10/14 00:39:27;;;;;;;;;;;;;;;14.55;100.00;101171.31;5013431;28;19926;-74
2022/10/14 00:41:53;;;;;;;;;;;;;;;14.54;100.00;101172.50;5024655;28;20006;-75
2022/10/14 00:44:19;;;;;;;;;;;;;;;14.51;100.00;101171.34;5027408;28;19976;-75
2022/10/14 00:46:46;;;;;;;;;;;;;;;14.53;100.00;101170.94;5026662;28;19986;-74
2022/10/14 00:49:19;;;;;;;;;;;;;;;14.54;100.00;101170.53;5025518;28;19951;-75
2022/10/14 00:51:47;;;;;;;;;;;;;;;14.44;100.00;101171.41;5022403;28;19939;-75
2022/10/14 00:54:15;;;;;;;;;;;;;;;14.50;100.00;101171.75;5026134;28;19921;-74
2022/10/14 00:56:43;;;;;;;;;;;;;;;14.51;100.00;101171.34;5027285;28;19930;-75
2022/10/14 00:59:10;;;;;;;;;;;;;;;14.56;100.00;101176.50;5011028;28;19952;-74
2022/10/14 01:01:37;;;;;;;;;;;;;;;14.59;100.00;101178.44;5005423;28;19982;-75
2022/10/14 01:04:03;;;;;;;;;;;;;;;14.64;100.00;101171.63;5027459;28;20376;-74
2022/10/14 01:06:41;;;;;;;;;;;;;;;14.66;100.00;101164.44;5020651;28;19932;-74
2022/10/14 01:09:17;;;;;;;;;;;;;;;14.68;100.00;101159.22;5029973;28;19925;-75
2022/10/14 01:12:02;;;;;;;;;;;;;;;14.60;100.00;101171.66;5027930;28;19932;-75
2022/10/14 01:15:03;;;;;;;;;;;;;;;14.66;100.00;101170.03;5027173;28;20388;-74
2022/10/14 01:17:48;;;;;;;;;;;;;;;14.62;100.00;101168.47;5020502;28;19925;-74
2022/10/14 01:20:30;;;;;;;;;;;;;;;14.62;100.00;101165.69;5019338;28;19921;-75
2022/10/14 01:23:10;;;;;;;;;;;;;;;14.62;100.00;101162.91;5013185;28;19925;-75
2022/10/14 01:25:47;;;;;;;;;;;;;;;14.63;100.00;101154.13;5023590;28;19921;-74
2022/10/14 01:28:33;;;;;;;;;;;;;;;14.58;100.00;101164.94;5018495;28;20612;-75
2022/10/14 01:31:01;;;;;;;;;;;;;;;14.61;100.00;101166.88;5040291;28;19983;-75
2022/10/14 01:33:32;;;;;;;;;;;;;;;14.60;100.00;101154.97;5017736;28;19925;-75
2022/10/14 01:36:18;;;;;;;;;;;;;;;14.56;100.00;101162.56;5027874;28;19925;-74
2022/10/14 01:39:04;;;;;;;;;;;;;;;14.57;100.00;101155.78;5020126;28;19921;-75
2022/10/14 01:41:36;;;;;;;;;;;;;;;14.58;100.00;101154.56;5012179;28;19925;-74
2022/10/14 01:44:04;;;;;;;;;;;;;;;14.61;100.00;101141.81;5023765;28;19958;-75
2022/10/14 01:46:33;;;;;;;;;;;;;;;14.61;100.00;101137.03;5011997;28;19929;-75
2022/10/14 01:49:03;;;;;;;;;;;;;;;14.61;100.00;101127.88;5028260;28;19932;-75
2022/10/14 01:51:38;;;;;;;;;;;;;;;14.61;100.00;101125.91;5027579;28;19928;-75
2022/10/14 01:54:11;;;;;;;;;;;;;;;14.62;100.00;101129.47;5019805;28;20373;-75
2022/10/14 01:56:38;;;;;;;;;;;;;;;14.60;100.00;101121.53;5022282;28;19931;-75
2022/10/14 01:59:07;;;;;;;;;;;;;;;14.62;100.00;101118.34;5015328;28;19925;-74
2022/10/14 02:01:35;;;;;;;;;;;;;;;14.65;100.00;101117.50;5016323;28;20336;-74
2022/10/14 02:04:01;;;;;;;;;;;;;;;14.66;100.00;101117.09;5027632;28;20046;-74
2022/10/14 02:06:33;;;;;;;;;;;;;;;14.66;100.00;101116.31;5003589;28;19924;-75
2022/10/14 02:09:26;;;;;;;;;;;;;;;14.70;100.00;101112.28;5020982;28;19975;-75
2022/10/14 02:12:05;;;;;;;;;;;;;;;14.72;100.00;101115.41;4998403;28;20344;-74
2022/10/14 02:14:34;;;;;;;;;;;;;;;14.74;100.00;101101.88;5011584;28;20305;-75
2022/10/14 02:17:04;;;;;;;;;;;;;;;14.77;100.00;101116.97;5005669;28;20340;-75
2022/10/14 02:19:37;;;;;;;;;;;;;;;14.73;100.00;101114.22;5029659;28;19932;-73
2022/10/14 02:22:07;;;;;;;;;;;;;;;14.69;100.00;101119.06;5022166;28;19979;-74
2022/10/14 02:24:36;;;;;;;;;;;;;;;14.72;100.00;101109.06;5024656;28;20408;-74
2022/10/14 02:27:05;;;;;;;;;;;;;;;14.65;100.00;101101.56;5011770;28;20419;-75
2022/10/14 02:29:33;;;;;;;;;;;;;;;14.71;100.00;101097.13;5023807;28;19921;-75
2022/10/14 02:32:01;;;;;;;;;;;;;;;14.70;100.00;101094.75;5013031;28;19925;-75
2022/10/14 02:34:28;;;;;;;;;;;;;;;14.74;100.00;101096.31;5019855;28;19925;-75
2022/10/14 02:36:55;;;;;;;;;;;;;;;14.73;100.00;101089.16;5018203;28;19930;-74
2022/10/14 02:39:26;;;;;;;;;;;;;;;14.73;100.00;101091.16;5023513;28;19937;-75
2022/10/14 02:41:52;;;;;;;;;;;;;;;14.74;100.00;101085.16;5022000;28;19924;-74
2022/10/14 02:44:19;;;;;;;;;;;;;;;14.71;100.00;101088.78;5022907;28;19955;-75
2022/10/14 02:46:45;;;;;;;;;;;;;;;14.69;100.00;101085.63;5014932;28;20691;-75
2022/10/14 02:49:12;;;;;;;;;;;;;;;14.67;100.00;101093.59;5015336;28;19929;-75
2022/10/14 02:51:38;;;;;;;;;;;;;;;14.65;100.00;101079.28;5029463;28;19925;-75
2022/10/14 02:54:04;;;;;;;;;;;;;;;14.66;100.00;101072.53;5027593;28;20377;-75
2022/10/14 02:56:31;;;;;;;;;;;;;;;14.71;100.00;101071.25;5027150;28;19975;-74
2022/10/14 02:58:57;;;;;;;;;;;;;;;14.71;100.00;101076.84;5012417;28;19925;-75
2022/10/14 03:01:23;;;;;;;;;;;;;;;14.67;100.00;101071.31;5025274;28;20451;-75
2022/10/14 03:03:50;;;;;;;;;;;;;;;14.71;100.00;101068.47;5029804;28;19925;-75
2022/10/14 03:06:16;;;;;;;;;;;;;;;14.71;100.00;101062.91;5027893;28;19932;-74
2022/10/14 03:08:42;;;;;;;;;;;;;;;14.70;100.00;101059.34;5015256;28;19929;-74
2022/10/14 03:11:09;;;;;;;;;;;;;;;14.69;100.00;101059.78;5027879;28;20348;-75
2022/10/14 03:13:35;;;;;;;;;;;;;;;14.73;100.00;101057.72;5023242;28;19991;-75
2022/10/14 03:16:01;;;;;;;;;;;;;;;14.72;100.00;101051.34;5026828;28;19925;-75
2022/10/14 03:18:28;;;;;;;;;;;;;;;14.73;100.00;101052.97;5020958;28;19925;-75
2022/10/14 03:20:54;;;;;;;;;;;;;;;14.72;100.00;101059.72;5012075;28;19921;-74
2022/10/14 03:23:21;;;;;;;;;;;;;;;14.66;100.00;101055.81;5022215;28;19936;-74
2022/10/14 03:25:47;;;;;;;;;;;;;;;14.64;100.00;101058.22;5019491;28;20512;-74
2022/10/14 03:28:13;;;;;;;;;;;;;;;14.62;100.00;101051.50;5023429;28;19936;-74
2022/10/14 03:30:40;;;;;;;;;;;;;;;14.62;100.00;101057.06;5023293;28;20087;-74
2022/10/14 03:33:06;;;;;;;;;;;;;;;14.62;100.00;101046.72;5018843;28;19932;-74
2022/10/14 03:35:33;;;;;;;;;;;;;;;14.64;100.00;101046.28;5007020;28;19921;-74
2022/10/14 03:38:02;;;;;;;;;;;;;;;14.65;100.00;101037.53;5021557;28;19947;-74
2022/10/14 03:40:28;;;;;;;;;;;;;;;14.57;100.00;101038.81;5045053;28;19931;-74
2022/10/14 03:42:59;;;;;;;;;;;;;;;14.61;100.00;101034.00;5029658;28;19943;-74
2022/10/14 03:45:27;;;;;;;;;;;;;;;14.63;100.00;101045.53;5028498;28;20281;-74
2022/10/14 03:47:53;;;;;;;;;;;;;;;14.63;100.00;101047.50;5033291;28;19932;-74
2022/10/14 03:50:20;;;;;;;;;;;;;;;14.62;100.00;101043.91;5035018;28;20377;-75
2022/10/14 03:52:46;;;;;;;;;;;;;;;14.59;100.00;101047.56;5026098;28;19925;-75
2022/10/14 03:55:18;;;;;;;;;;;;;;;14.57;100.00;101047.19;5028333;28;19932;-75
2022/10/14 03:57:45;;;;;;;;;;;;;;;14.57;100.00;101040.81;5023963;28;19925;-75
2022/10/14 04:00:11;;;;;;;;;;;;;;;14.58;100.00;101045.19;4994892;28;19933;-75
2022/10/14 04:02:38;;;;;;;;;;;;;;;14.56;100.00;101048.41;5006096;28;20382;-75
2022/10/14 04:05:04;;;;;;;;;;;;;;;14.60;100.00;101045.56;5019568;28;20655;-74
2022/10/14 04:07:31;;;;;;;;;;;;;;;14.51;100.00;101042.50;5029474;28;20653;-74
2022/10/14 04:09:57;;;;;;;;;;;;;;;14.50;100.00;101052.03;5030184;28;20391;-75
2022/10/14 04:12:23;;;;;;;;;;;;;;;14.52;100.00;101050.41;5029220;28;19933;-74
2022/10/14 04:14:50;;;;;;;;;;;;;;;14.52;100.00;101050.41;5024966;28;19928;-74
2022/10/14 04:17:16;;;;;;;;;;;;;;;14.45;100.00;101049.72;5029296;28;19925;-74
2022/10/14 04:19:42;;;;;;;;;;;;;;;14.52;100.00;101046.84;5015686;28;20681;-73
2022/10/14 04:22:09;;;;;;;;;;;;;;;14.49;100.00;101044.91;5030168;28;19928;-74
2022/10/14 04:24:35;;;;;;;;;;;;;;;14.49;100.00;101048.47;5028825;28;19932;-75
2022/10/14 04:27:02;;;;;;;;;;;;;;;14.51;100.00;101048.84;5029424;28;19925;-74
2022/10/14 04:29:28;;;;;;;;;;;;;;;14.51;100.00;101045.28;5018813;28;20397;-74
2022/10/14 04:31:54;;;;;;;;;;;;;;;14.50;100.00;101041.69;5024092;28;20381;-75
2022/10/14 04:34:21;;;;;;;;;;;;;;;14.52;100.00;101036.47;5029548;28;19929;-75
2022/10/14 04:36:48;;;;;;;;;;;;;;;14.52;100.00;101039.28;5023051;28;19925;-75
2022/10/14 04:39:14;;;;;;;;;;;;;;;14.57;100.00;101027.69;5017686;28;19928;-75
2022/10/14 04:41:41;;;;;;;;;;;;;;;14.56;100.00;101026.13;5022236;28;19921;-75
2022/10/14 04:44:07;;;;;;;;;;;;;;;14.60;100.00;101024.06;5012470;28;19921;-75
2022/10/14 04:46:34;;;;;;;;;;;;;;;14.59;100.00;101028.06;5030669;28;20308;-72
2022/10/14 04:49:00;;;;;;;;;;;;;;;14.62;100.00;101027.22;5022154;28;19936;-75
2022/10/14 04:51:26;;;;;;;;;;;;;;;14.63;100.00;101026.03;4994807;28;20360;-75
2022/10/14 04:53:53;;;;;;;;;;;;;;;14.55;100.00;101030.09;5020792;28;20540;-75
2022/10/14 04:56:19;;;;;;;;;;;;;;;14.57;100.00;101027.69;5020692;28;19971;-75
2022/10/14 04:58:46;;;;;;;;;;;;;;;14.59;100.00;101021.69;5027277;28;19943;-76
2022/10/14 05:01:12;;;;;;;;;;;;;;;14.61;100.00;101025.66;5015714;28;19925;-75
2022/10/14 05:03:39;;;;;;;;;;;;;;;14.60;100.00;101024.06;5028778;28;19928;-75
2022/10/14 05:06:05;;;;;;;;;;;;;;;14.61;100.00;101022.84;5018727;28;19929;-75
2022/10/14 05:08:31;;;;;;;;;;;;;;;14.64;100.00;101030.38;5024555;28;20604;-75
2022/10/14 05:10:58;;;;;;;;;;;;;;;14.64;100.00;101013.66;5013629;28;20302;-75
2022/10/14 05:13:24;;;;;;;;;;;;;;;14.62;100.00;101021.63;5019371;28;19925;-74
2022/10/14 05:15:50;;;;;;;;;;;;;;;14.59;100.00;101014.16;5022274;28;19927;-75
2022/10/14 05:18:17;;;;;;;;;;;;;;;14.59;100.00;101014.16;5012452;28;20334;-76
2022/10/14 05:20:43;;;;;;;;;;;;;;;14.59;100.00;101008.56;5022530;28;19958;-75
2022/10/14 05:23:09;;;;;;;;;;;;;;;14.61;100.00;101013.69;5030883;28;19921;-75
2022/10/14 05:25:36;;;;;;;;;;;;;;;14.64;100.00;101016.47;5019961;28;19930;-75
2022/10/14 05:28:02;;;;;;;;;;;;;;;14.61;100.00;101013.69;5015323;28;20008;-75
2022/10/14 05:30:28;;;;;;;;;;;;;;;14.60;100.00;101001.78;5006637;28;19980;-75
2022/10/14 05:33:00;;;;;;;;;;;;;;;14.61;100.00;101008.13;5006202;28;19925;-75
2022/10/14 05:35:26;;;;;;;;;;;;;;;14.58;100.00;101006.22;5021372;28;19928;-75
2022/10/14 05:38:13;;;;;;;;;;;;;;;14.55;100.00;101004.25;5021328;28;19968;-75
2022/10/14 05:40:39;;;;;;;;;;;;;;;14.61;100.00;100992.22;5026308;28;19975;-75
2022/10/14 05:43:06;;;;;;;;;;;;;;;14.60;100.00;100990.66;5019401;28;19933;-75
2022/10/14 05:45:32;;;;;;;;;;;;;;;14.60;100.00;100987.88;5022000;28;19936;-74
2022/10/14 05:47:58;;;;;;;;;;;;;;;14.63;100.00;100987.03;5019303;28;19929;-74
2022/10/14 05:50:25;;;;;;;;;;;;;;;14.61;100.00;100983.06;5023271;28;19930;-75
2022/10/14 05:52:51;;;;;;;;;;;;;;;14.58;100.00;100978.38;5018487;28;19924;-74
2022/10/14 05:55:17;;;;;;;;;;;;;;;14.56;100.00;100984.34;5030908;28;19929;-75
2022/10/14 05:57:44;;;;;;;;;;;;;;;14.61;100.00;100978.28;5023955;28;20424;-74
2022/10/14 06:00:12;;;;;;;;;;;;;;;14.62;100.00;100982.66;5031918;28;19920;-74
2022/10/14 06:02:39;;;;;;;;;;;;;;;14.62;100.00;100973.53;5033507;28;19917;-75
2022/10/14 06:05:05;;;;;;;;;;;;;;;14.65;100.00;100976.25;5032703;28;20409;-74
2022/10/14 06:07:33;;;;;;;;;;;;;;;14.67;100.00;100975.84;5029212;28;19979;-75
2022/10/14 06:10:00;;;;;;;;;;;;;;;14.64;100.00;100966.31;5019673;28;20516;-74
2022/10/14 06:12:26;;;;;;;;;;;;;;;14.60;100.00;100965.59;5014312;28;19921;-76
2022/10/14 06:14:52;;;;;;;;;;;;;;;14.66;100.00;100971.47;5037110;28;19925;-74
2022/10/14 06:17:19;;;;;;;;;;;;;;;14.70;100.00;100969.44;5032751;28;19925;-75
2022/10/14 06:19:45;;;;;;;;;;;;;;;14.74;100.00;100973.75;5025980;28;19921;-74
2022/10/14 06:22:12;;;;;;;;;;;;;;;14.77;100.00;100967.34;5028219;28;19928;-74
2022/10/14 06:24:38;;;;;;;;;;;;;;;14.78;100.00;100954.97;5036050;28;19921;-74
2022/10/14 06:27:04;;;;;;;;;;;;;;;14.80;100.00;100966.50;5033044;28;19916;-75
2022/10/14 06:29:36;;;;;;;;;;;;;;;14.82;100.00;100964.06;5024835;28;19921;-74
2022/10/14 06:32:04;;;;;;;;;;;;;;;14.83;100.00;100953.72;5022743;28;19921;-75
2022/10/14 06:34:30;;;;;;;;;;;;;;;14.85;100.00;100951.31;5019560;28;19929;-75
2022/10/14 06:36:57;;;;;;;;;;;;;;;14.88;100.00;100951.25;5019347;28;19928;-74
2022/10/14 06:39:27;;;;;;;;;;;;;;;14.90;100.00;100954.41;5011139;28;19920;-74
2022/10/14 06:41:54;;;;;;;;;;;;;;;14.92;100.00;100951.22;5015877;28;19923;-75
2022/10/14 06:44:20;;;;;;;;;;;;;;;14.95;100.00;100940.00;5030402;28;19936;-75
2022/10/14 06:46:46;;;;;;;;;;;;;;;14.97;100.00;100948.75;5024852;28;19921;-74
2022/10/14 06:49:13;;;;;;;;;;;;;;;15.01;100.00;100949.47;5020776;28;19937;-75
2022/10/14 06:51:39;;;;;;;;;;;;;;;15.02;100.00;100951.03;5025447;28;19921;-78
2022/10/14 06:54:06;;;;;;;;;;;;;;;15.04;100.00;100943.06;5029614;28;20289;-75
2022/10/14 06:56:33;;;;;;;;;;;;;;;15.04;100.00;100943.06;5016346;28;19932;-75
2022/10/14 06:58:59;;;;;;;;;;;;;;;15.01;100.00;100949.47;5037536;28;19917;-75
2022/10/14 07:01:26;;;;;;;;;;;;;;;15.06;100.00;100945.41;5029980;28;19921;-74
2022/10/14 07:03:52;;;;;;;;;;;;;;;15.05;100.00;100941.84;5028731;28;19929;-75
2022/10/14 07:06:22;;;;;;;;;;;;;;;15.06;100.00;100943.41;5022718;28;19920;-75
2022/10/14 07:08:48;;;;;;;;;;;;;;;15.02;100.00;100942.69;5028310;28;19975;-75
2022/10/14 07:11:14;;;;;;;;;;;;;;;15.08;100.00;100935.41;5041680;28;19986;-75
2022/10/14 07:13:41;;;;;;;;;;;;;;;15.11;100.00;100936.56;5032401;28;20398;-75
2022/10/14 07:16:07;;;;;;;;;;;;;;;15.15;100.00;100937.28;5025850;28;19925;-75
2022/10/14 07:18:33;;;;;;;;;;;;;;;15.22;100.00;100937.97;5028739;28;19944;-75
2022/10/14 07:21:01;;;;;;;;;;;;;;;15.25;100.00;100942.69;5021020;28;19991;-75
2022/10/14 07:23:27;;;;;;;;;;;;;;;15.22;100.00;100939.97;5023072;28;19932;-75
2022/10/14 07:25:57;;;;;;;;;;;;;;;15.30;100.00;100939.41;5020176;28;19925;-76
2022/10/14 07:28:24;;;;;;;;;;;;;;;15.29;100.00;100934.28;5025778;28;19936;-75
2022/10/14 07:31:04;;;;;;;;;;;;;;;15.34;100.00;100937.38;5021203;28;19930;-74
2022/10/14 07:33:30;;;;;;;;;;;;;;;15.40;100.00;100930.13;5011787;28;20345;-75
2022/10/14 07:36:16;;;;;;;;;;;;;;;15.48;100.00;100922.44;5025775;28;19979;-73
2022/10/14 07:38:47;;;;;;;;;;;;;;;15.52;100.00;100908.44;5030051;28;19924;-75
2022/10/14 07:41:15;;;;;;;;;;;;;;;15.51;100.00;100921.56;5028645;28;20417;-75
2022/10/14 07:43:46;;;;;;;;;;;;;;;15.53;100.00;100919.16;5032154;28;19924;-74
2022/10/14 07:46:13;;;;;;;;;;;;;;;15.53;100.00;100919.16;5030613;28;19940;-75
2022/10/14 07:48:40;;;;;;;;;;;;;;;15.48;100.00;100928.00;5010490;28;19929;-75
2022/10/14 07:51:23;;;;;;;;;;;;;;;15.57;100.00;100930.25;5027013;28;19983;-75
2022/10/14 07:53:51;;;;;;;;;;;;;;;15.62;100.00;100922.16;5023677;28;19925;-75
2022/10/14 07:56:18;;;;;;;;;;;;;;;15.70;100.00;100928.41;5018114;28;20400;-75
2022/10/14 07:58:45;;;;;;;;;;;;;;;15.75;100.00;100927.91;5024936;28;19929;-75
2022/10/14 08:01:14;;;;;;;;;;;;;;;15.67;100.00;100938.41;5021793;28;19968;-75
2022/10/14 08:03:41;;;;;;;;;;;;;;;15.76;100.00;100940.66;5019953;28;20257;-75
2022/10/14 08:06:08;;;;;;;;;;;;;;;15.74;100.00;100935.50;5030917;28;20305;-75
2022/10/14 08:08:34;;;;;;;;;;;;;;;15.85;100.00;100938.06;5024822;28;20295;-76
2022/10/14 08:11:07;;;;;;;;;;;;;;;15.81;100.00;100934.56;5026535;28;19932;-75
2022/10/14 08:13:34;;;;;;;;;;;;;;;15.92;100.00;100932.34;5013522;28;19929;-75
2022/10/14 08:16:00;;;;;;;;;;;;;;;16.00;100.00;100928.22;5026188;28;19922;-75
2022/10/14 08:18:27;;;;;;;;;;;;;;;15.96;100.00;100931.06;5024429;28;20039;-74
2022/10/14 08:20:53;;;;;;;;;;;;;;;16.01;100.00;100921.41;5024952;28;19937;-75
2022/10/14 08:23:20;;;;;;;;;;;;;;;15.91;100.00;100911.25;5018151;28;19925;-75
2022/10/14 08:25:47;;;;;;;;;;;;;;;15.95;100.00;100917.53;5019157;28;19928;-75
2022/10/14 08:28:14;;;;;;;;;;;;;;;16.11;100.00;100926.81;5026298;28;19928;-75
2022/10/14 08:30:40;;;;;;;;;;;;;;;16.14;100.00;100925.16;5019715;28;20292;-75
2022/10/14 08:33:07;;;;;;;;;;;;;;;16.15;100.00;100923.91;5032404;28;19929;-75
2022/10/14 08:35:33;;;;;;;;;;;;;;;16.13;100.00;100915.22;5027538;28;20397;-75
2022/10/14 08:38:00;;;;;;;;;;;;;;;16.14;100.00;100925.16;5024643;28;19924;-75
2022/10/14 08:40:27;;;;;;;;;;;;;;;16.09;100.00;100928.44;5025489;28;19925;-75
2022/10/14 08:43:03;;;;;;;;;;;;;;;16.14;100.00;100925.16;5037972;28;19925;-75
2022/10/14 08:45:36;;;;;;;;;;;;;;;16.17;100.00;100922.28;5018412;28;19921;-75
2022/10/14 08:48:12;;;;;;;;;;;;;;;16.21;100.00;100908.25;5008404;28;19930;-75
2022/10/14 08:50:43;;;;;;;;;;;;;;;16.24;100.00;100910.19;5030150;28;19936;-75
2022/10/14 08:53:15;;;;;;;;;;;;;;;16.27;100.00;100909.31;5030392;28;19921;-74
2022/10/14 08:55:53;;;;;;;;;;;;;;;16.25;100.00;100909.75;5028988;28;19932;-74
2022/10/14 08:58:30;;;;;;;;;;;;;;;16.27;100.00;100907.28;5011297;28;19932;-75
2022/10/14 09:01:00;;;;;;;;;;;;;;;16.25;100.00;100893.00;5026703;28;19931;-76
2022/10/14 09:03:32;;;;;;;;;;;;;;;16.27;100.00;100890.53;5026816;28;19963;-74
2022/10/14 09:06:00;;;;;;;;;;;;;;;16.21;100.00;100889.50;5032825;28;20393;-75
2022/10/14 09:08:31;;;;;;;;;;;;;;;16.29;100.00;100885.31;5028859;28;19921;-75
2022/10/14 09:10:58;;;;;;;;;;;;;;;16.25;100.00;100881.03;5026994;28;19971;-75
2022/10/14 09:13:35;;;;;;;;;;;;;;;16.27;100.00;100875.81;5029311;28;19928;-75
2022/10/14 09:16:07;;;;;;;;;;;;;;;16.34;100.00;100875.66;5028625;28;19920;-75
2022/10/14 09:18:39;;;;;;;;;;;;;;;16.48;100.00;100867.78;5030855;28;20286;-75
2022/10/14 09:21:23;;;;;;;;;;;;;;;16.56;100.00;100869.19;5031632;28;19921;-75
2022/10/14 09:24:31;;;;;;;;;;;;;;;16.57;100.00;100870.75;5030924;28;19936;-75
2022/10/14 09:27:02;;;;;;;;;;;;;;;16.67;100.00;100871.75;5031743;28;19920;-74
2022/10/14 09:29:31;;;;;;;;;;;;;;;16.82;100.00;100864.59;5030721;28;19925;-75
2022/10/14 09:32:02;;;;;;;;;;;;;;;16.78;100.00;100872.28;5028617;28;19924;-75
2022/10/14 09:34:31;;;;;;;;;;;;;;;16.85;100.00;100872.09;5029872;28;20004;-75
2022/10/14 09:37:04;;;;;;;;;;;;;;;16.89;100.00;100875.59;5024110;28;19932;-75
2022/10/14 09:39:34;;;;;;;;;;;;;;;17.02;100.00;100868.88;5032197;28;19924;-75
2022/10/14 09:42:01;;;;;;;;;;;;;;;17.05;100.00;100864.41;5024743;28;19925;-73
2022/10/14 09:44:28;;;;;;;;;;;;;;;17.04;100.00;100862.84;5028345;28;19925;-74
2022/10/14 09:46:56;;;;;;;;;;;;;;;16.98;100.00;100867.41;5026922;28;20439;-74
2022/10/14 09:49:32;;;;;;;;;;;;;;;16.93;100.00;100859.50;5027075;28;19937;-72
2022/10/14 09:52:01;;;;;;;;;;;;;;;16.89;100.00;100867.22;5027335;28;20540;-74
2022/10/14 09:54:29;;;;;;;;;;;;;;;16.91;100.00;100875.94;5033413;28;19936;-74
2022/10/14 09:57:01;;;;;;;;;;;;;;;16.90;100.00;100865.97;5029622;28;19921;-74
2022/10/14 09:59:28;;;;;;;;;;;;;;;17.03;100.00;100861.25;5022623;28;19921;-74
2022/10/14 10:02:00;;;;;;;;;;;;;;;16.98;100.00;100861.81;5005210;28;19925;-74
2022/10/14 10:04:29;;;;;;;;;;;;;;;17.00;100.00;100860.13;5013896;28;19929;-75
2022/10/14 10:06:56;;;;;;;;;;;;;;;17.09;100.00;100845.53;5028421;28;19925;-75
2022/10/14 10:09:22;;;;;;;;;;;;;;;17.08;100.00;100850.34;5029373;28;20373;-74
2022/10/14 10:11:49;;;;;;;;;;;;;;;17.16;100.00;100831.38;5025944;28;19940;-74
2022/10/14 10:14:22;;;;;;;;;;;;;;;17.27;100.00;100834.66;5026382;28;19925;-75
2022/10/14 10:16:50;;;;;;;;;;;;;;;17.24;100.00;100830.75;5024406;28;19928;-74
2022/10/14 10:19:25;;;;;;;;;;;;;;;17.32;100.00;100829.31;5027380;28;19925;-75
2022/10/14 10:21:52;;;;;;;;;;;;;;;17.32;100.00;100825.75;5029769;28;20302;-75
2022/10/14 10:24:21;;;;;;;;;;;;;;;17.40;100.00;100827.13;5028233;28;19925;-75
2022/10/14 10:26:52;;;;;;;;;;;;;;;17.49;100.00;100824.53;5025015;28;19944;-75
2022/10/14 10:29:23;;;;;;;;;;;;;;;17.54;100.00;100826.75;5033035;28;20421;-75
2022/10/14 10:31:49;;;;;;;;;;;;;;;17.63;100.00;100821.31;5034804;28;20393;-75
2022/10/14 10:34:25;;;;;;;;;;;;;;;17.64;100.00;100809.69;5040857;28;19971;-75
2022/10/14 10:36:56;;;;;;;;;;;;;;;17.67;100.00;100813.59;5024476;28;20363;-75
2022/10/14 10:39:25;;;;;;;;;;;;;;;17.61;100.00;100810.56;5029061;28;19928;-74
2022/10/14 10:42:11;;;;;;;;;;;;;;;17.79;100.00;100816.44;5036496;28;20301;-74
2022/10/14 10:45:01;;;;;;;;;;;;;;;17.83;100.00;100811.53;5024664;28;19925;-75
2022/10/14 10:47:35;;;;;;;;;;;;;;;17.82;100.00;100809.97;5020912;28;19925;-75
2022/10/14 10:50:08;;;;;;;;;;;;;;;17.81;100.00;100810.41;5038548;28;19927;-75
2022/10/14 10:52:55;;;;;;;;;;;;;;;17.88;100.00;100802.59;5031747;28;19924;-75
2022/10/14 10:55:48;;;;;;;;;;;;;;;17.90;100.00;100796.53;4992071;28;19925;-75
2022/10/14 10:58:17;;;;;;;;;;;;;;;17.88;100.00;100791.41;5010228;28;19929;-75
2022/10/14 11:00:46;;;;;;;;;;;;;;;18.06;100.00;100795.69;4995245;28;20606;-75
2022/10/14 11:03:19;;;;;;;;;;;;;;;18.06;100.00;100795.69;5013859;28;20917;-75
2022/10/14 11:05:45;;;;;;;;;;;;;;;17.97;100.00;100785.13;5007102;28;19976;-75
2022/10/14 11:14:21;;;;;;;;;;;;;;;17.98;100.00;100775.50;4996967;28;19929;-75
2022/10/14 11:17:06;;;;;;;;;;;;;;;18.02;100.00;100774.16;5000160;28;20031;-75
2022/10/14 11:19:51;;;;;;;;;;;;;;;17.89;100.00;100758.59;5009083;28;19928;-75
2022/10/14 11:22:37;;;;;;;;;;;;;;;17.75;100.00;100759.78;5000804;28;19927;-75
2022/10/14 11:25:06;;;;;;;;;;;;;;;17.93;100.00;100759.28;5001145;28;19921;-75
2022/10/14 11:27:46;;;;;;;;;;;;;;;17.92;100.00;100763.28;4998788;28;19929;-75
2022/10/14 11:30:15;;;;;;;;;;;;;;;17.93;100.00;100764.88;4998944;28;19936;-75
2022/10/14 11:32:50;;;;;;;;;;;;;;;17.98;100.00;100761.50;5001740;28;19925;-75
2022/10/14 11:35:23;;;;;;;;;;;;;;;17.82;100.00;100767.97;4999408;28;20672;-74
2022/10/14 11:37:50;;;;;;;;;;;;;;;17.83;100.00;100758.34;5015633;28;19929;-74
2022/10/14 11:40:20;;;;;;;;;;;;;;;17.93;100.00;100759.28;5000222;28;19929;-74
2022/10/14 11:42:56;;;;;;;;;;;;;;;17.89;100.00;100756.56;4993970;28;19928;-74
2022/10/14 11:45:37;;;;;;;;;;;;;;;17.98;100.00;100747.50;4999218;28;19934;-74
2022/10/14 11:48:12;;;;;;;;;;;;;;;17.89;100.00;100750.97;4997949;28;19936;-74
2022/10/14 11:50:41;;;;;;;;;;;;;;;17.95;100.00;100740.00;5005390;28;19924;-75
2022/10/14 11:53:12;;;;;;;;;;;;;;;17.93;100.00;100737.63;5009127;28;19928;-74
2022/10/14 11:55:42;;;;;;;;;;;;;;;17.98;100.00;100736.31;5011242;28;20293;-73
2022/10/14 11:58:19;;;;;;;;;;;;;;;17.91;100.00;100740.13;5010279;28;19921;-74
2022/10/14 12:01:16;;;;;;;;;;;;;;;17.83;100.00;100733.16;5010437;28;19929;-74
2022/10/14 12:04:03;;;;;;;;;;;;;;;17.89;100.00;100734.16;5012070;28;19928;-74
2022/10/14 12:06:33;;;;;;;;;;;;;;;17.79;100.00;100731.72;5009431;28;19924;-73
2022/10/14 12:09:02;;;;;;;;;;;;;;;17.74;100.00;100730.25;5014664;28;19920;-73
2022/10/14 12:11:38;;;;;;;;;;;;;;;17.70;100.00;100731.56;5011119;28;19920;-74
2022/10/14 12:14:22;;;;;;;;;;;;;;;17.62;100.00;100719.03;5009561;28;19929;-74
2022/10/14 12:16:49;;;;;;;;;;;;;;;17.67;100.00;100712.88;5007022;28;20273;-74
2022/10/14 12:19:23;;;;;;;;;;;;;;;17.50;100.00;100716.97;4986974;28;19924;-74
2022/10/14 12:21:57;;;;;;;;;;;;;;;17.53;100.00;100707.72;5010388;28;19924;-73
2022/10/14 12:24:25;;;;;;;;;;;;;;;17.42;100.00;100710.03;5007732;28;19929;-74
2022/10/14 12:26:56;;;;;;;;;;;;;;;17.30;100.00;100705.94;5010675;28;19925;-75
2022/10/14 12:29:24;;;;;;;;;;;;;;;17.27;100.00;100712.44;5011677;28;19925;-76
2022/10/14 12:32:03;;;;;;;;;;;;;;;17.15;100.00;100715.19;5009793;28;19951;-74
2022/10/14 12:34:36;;;;;;;;;;;;;;;17.17;100.00;100702.31;5006813;28;19948;-74
2022/10/14 12:37:25;;;;;;;;;;;;;;;17.18;100.00;100695.50;5008394;28;20685;-74
2022/10/14 12:40:04;;;;;;;;;;;;;;;17.07;100.00;100692.22;4983162;28;19979;-74
2022/10/14 12:42:51;;;;;;;;;;;;;;;17.11;100.00;100692.13;5001987;28;20472;-75
2022/10/14 12:45:20;;;;;;;;;;;;;;;17.13;100.00;100689.66;4999672;28;19933;-73
2022/10/14 12:47:59;;;;;;;;;;;;;;;17.16;100.00;100686.00;5008393;28;19925;-74